Latest Coastal Weather Observations for Roebourne Airport

IDW60701

Issued at 2:35 pm WST Thursday 23 October 2014 (issued every 10 minutes, with the page automatically refreshed every 10 minutes)

About coastal observations | Map of coastal stations | Coastal observations for WA | Marine services | Other Formats
Station Details ID: 004090 Name: ROEBOURNE AERO Lat: -20.76 Lon: 117.16 Height: 10.7 m
Data from the previous 72 hours. | See also: Recent months at Roebourne Airport
Date/Time
WST
Temp

°C
Wind Pressure Rain
since 9am
mm
Weather Cloud Vis
km
Sea
Height
m
Swell
Dir
 
Speed
knots
Gust
knots
hPa Trend Height
m
Period
s
Dir
23/02:30pm 40.3 W 15 25 1008.9 - 0.0 - - - - - - -
23/02:00pm 41.1 W 10 15 1009.4 - 0.0 - - - - - - -
23/01:30pm 40.8 SSW 9 16 1009.7 - 0.0 - - - - - - -
23/01:00pm 41.1 S 7 17 1010.2 - 0.0 - - - - - - -
23/12:30pm 39.5 SW 8 11 1010.8 - 0.0 - - - - - - -
23/12:00pm 39.2 SSW 3 - 1011.2 - - - - - - - - -
23/11:30am 39.3 SSW 11 17 1011.6 - 0.0 - - - - - - -
23/11:00am 38.9 SSW 8 12 1011.9 - 0.0 - - - - - - -
23/10:30am 37.4 SSW 9 13 1012.3 - 0.0 - - - - - - -
23/10:00am 37.9 S 7 11 1012.5 - 0.0 - - - - - - -
23/09:30am 36.1 S 8 12 1012.7 - 0.0 - - - - - - -
23/09:00am 35.3 S 9 12 1012.6 - 0.0 - - - - - - -
23/08:30am 33.8 SSW 11 15 1012.6 - 0.0 - - - - - - -
23/08:00am 32.7 S 11 13 1012.5 - 0.0 - - - - - - -
23/07:30am 31.0 SW 9 13 1012.3 - 0.0 - - - - - - -
23/07:00am 29.3 SW 10 13 1012.1 - 0.0 - - - - - - -
23/06:30am 27.4 WSW 8 10 1011.9 - 0.0 - - - - - - -
23/06:00am 26.7 WSW 9 11 1011.3 - 0.0 - - - - - - -
23/05:30am 27.0 SW 8 10 1011.0 - 0.0 - - - - - - -
23/05:00am 27.7 SW 10 13 1010.8 - 0.0 - - - - - - -
23/04:30am 28.0 SW 10 13 1010.6 - 0.0 - - - - - - -
23/04:00am 28.1 SW 10 12 1010.4 - 0.0 - - - - - - -
23/03:30am 28.6 SW 11 14 1010.4 - 0.0 - - - - - - -
23/03:00am 28.4 WSW 9 10 1010.5 - 0.0 - - - - - - -
23/02:30am 28.5 SW 9 11 1010.6 - 0.0 - - - - - - -
23/02:00am 28.8 SW 9 11 1010.8 - 0.0 - - - - - - -
23/01:30am 29.5 SW 10 12 1011.0 - 0.0 - - - - - - -
23/01:00am 30.1 SW 10 13 1011.0 - 0.0 - - - - - - -
23/12:30am 30.6 SW 12 15 1011.3 - 0.0 - - - - - - -
23/12:00am 30.9 SW 11 14 1011.6 - 0.0 - - - - - - -
 
Date/Time
WST
Temp

°C
Wind Pressure Rain
since 9am
mm
Weather Cloud Vis
km
Sea
Height
m
Swell
Dir
 
Speed
knots
Gust
knots
hPa Trend Height
m
Period
s
Dir
22/11:30pm 31.0 SW 10 13 1011.8 - 0.0 - - - - - - -
22/11:00pm 31.5 SW 10 13 1012.0 - 0.0 - - - - - - -
22/10:30pm 31.2 SW 9 11 1012.2 - 0.0 - - - - - - -
22/10:00pm 32.7 SW 11 15 1012.0 - 0.0 - - - - - - -
22/09:30pm 33.4 SW 11 15 1012.1 - 0.0 - - - - - - -
22/09:00pm 33.7 WSW 11 14 1012.3 - 0.0 - - - - - - -
22/08:30pm 34.0 WSW 10 13 1012.0 - 0.0 - - - - - - -
22/08:00pm 34.8 WSW 10 13 1011.9 - 0.0 - - - - - - -
22/07:30pm 35.7 SW 11 15 1011.6 - 0.0 - - - - - - -
22/07:00pm 36.4 WSW 11 14 1011.1 - 0.0 - - - - - - -
22/06:30pm 37.0 WSW 12 17 1010.5 - 0.0 - - - - - - -
22/06:00pm 38.2 WSW 11 17 1010.1 - 0.0 - - - - - - -
22/05:30pm 39.4 WSW 13 21 1009.8 - 0.0 - - - - - - -
22/05:00pm 39.7 W 15 18 1009.6 - 0.0 - - - - - - -
22/04:30pm 41.0 WSW 13 19 1009.5 - 0.0 - - - - - - -
22/04:00pm 41.7 WSW 11 16 1009.5 - 0.0 - - - - - - -
22/03:30pm 42.5 WSW 11 15 1009.5 - 0.0 - - - - - - -
22/03:00pm 41.6 WSW 10 14 1009.8 - 0.0 - - - - - - -
22/02:30pm 41.4 WNW 15 25 1010.1 - 0.0 - - - - - - -
22/02:21pm 41.5 WNW 15 25 1010.1 - 0.0 - - - - - - -
22/02:00pm 41.6 W 13 18 1010.5 - 0.0 - - - - - - -
22/01:30pm 41.6 NW 11 16 1010.8 - 0.0 - - - - - - -
22/01:00pm 41.2 W 13 19 1011.2 - 0.0 - - - - - - -
22/12:30pm 40.4 NNW 10 16 1011.9 - 0.0 - - - - - - -
22/12:00pm 39.8 NNW 5 11 1012.5 - 0.0 - - - - - - -
22/11:30am 40.3 SSE 5 13 1012.9 - 0.0 - - - - - - -
22/11:00am 39.5 SW 6 12 1013.3 - 0.0 - - - - - - -
22/10:30am 38.8 SW 3 9 1013.7 - 0.0 - - - - - - -
22/10:00am 38.8 S 8 14 1014.0 - 0.0 - - - - - - -
22/09:30am 38.2 S 9 15 1014.2 - 0.0 - - - - - - -
22/09:00am 36.7 S 6 9 1014.3 - 0.0 - - - - - - -
22/08:30am 35.2 SSE 11 14 1014.3 - 0.0 - - - - - - -
22/08:00am 34.0 S 8 11 1014.1 - 0.0 - - - - - - -
22/07:30am 31.6 S 7 11 1013.8 - 0.0 - - - - - - -
22/07:00am 28.3 SSW 7 9 1013.6 - 0.0 - - - - - - -
22/06:30am 26.5 SSW 5 6 1013.6 - 0.0 - - - - - - -
22/06:00am 25.2 SW 8 9 1013.3 - 0.0 - - - - - - -
22/05:30am 24.6 SW 10 11 1013.1 - 0.0 - - - - - - -
22/05:00am 25.0 SW 10 13 1012.9 - 0.0 - - - - - - -
22/04:30am 25.5 SW 12 14 1012.6 - 0.0 - - - - - - -
22/04:00am 25.4 SW 11 13 1012.5 - 0.0 - - - - - - -
22/03:30am 25.4 SW 11 14 1012.5 - 0.0 - - - - - - -
22/03:00am 25.9 SW 12 15 1012.7 - 0.0 - - - - - - -
22/02:30am 25.4 WSW 13 16 1012.8 - 0.0 - - - - - - -
22/02:00am 26.2 SW 12 15 1012.9 - 0.0 - - - - - - -
22/01:30am 26.4 SW 12 16 1013.1 - 0.0 - - - - - - -
22/01:00am 26.3 SW 10 13 1013.4 - 0.0 - - - - - - -
22/12:30am 25.8 SW 9 12 1013.6 - 0.0 - - - - - - -
22/12:00am 26.3 SW 9 11 1013.9 - 0.0 - - - - - - -
 
Date/Time
WST
Temp

°C
Wind Pressure Rain
since 9am
mm
Weather Cloud Vis
km
Sea
Height
m
Swell
Dir
 
Speed
knots
Gust
knots
hPa Trend Height
m
Period
s
Dir
21/11:30pm 26.7 SW 10 12 1014.2 - 0.0 - - - - - - -
21/11:00pm 27.1 SW 12 15 1014.4 - 0.0 - - - - - - -
21/10:30pm 27.4 SW 11 15 1014.8 - 0.0 - - - - - - -
21/10:00pm 27.1 WSW 7 9 1015.2 - 0.0 - - - - - - -
21/09:30pm 27.4 WSW 8 11 1015.3 - 0.0 - - - - - - -
21/09:00pm 28.2 WSW 9 12 1015.3 - 0.0 - - - - - - -
21/08:30pm 28.0 W 8 10 1015.2 - 0.0 - - - - - - -
21/08:00pm 28.0 W 11 13 1015.0 - 0.0 - - - - - - -
21/07:30pm 28.6 W 11 14 1014.8 - 0.0 - - - - - - -
21/07:00pm 29.3 W 14 18 1014.6 - 0.0 - - - - - - -
21/06:30pm 30.1 W 13 16 1014.3 - 0.0 - - - - - - -
21/06:00pm 31.4 WNW 15 19 1014.0 - 0.0 - - - - - - -
21/05:30pm 33.1 WNW 17 20 1013.7 - 0.0 - - - - - - -
21/05:00pm 34.1 WNW 15 19 1013.3 - 0.0 - - - - - - -
21/04:30pm 35.4 WNW 15 18 1013.2 - 0.0 - - - - - - -
21/04:00pm 36.6 WNW 15 20 1013.2 - 0.0 - - - - - - -
21/03:30pm 37.3 WNW 13 18 1013.1 - 0.0 - - - - - - -
21/03:00pm 37.5 WNW 13 17 1013.4 - 0.0 - - - - - - -
21/02:30pm 37.4 NW 13 19 1013.4 - 0.0 - - - - - - -
21/02:00pm 38.1 NW 13 19 1013.8 - 0.0 - - - - - - -
21/01:30pm 38.0 NW 12 14 1014.1 - 0.0 - - - - - - -
21/01:00pm 36.9 NW 11 14 1014.5 - 0.0 - - - - - - -
21/12:30pm 37.7 N 11 16 1014.8 - 0.0 - - - - - - -
21/12:00pm 36.9 N 8 14 1015.2 - 0.0 - - - - - - -
21/11:30am 37.0 N 7 10 1015.6 - 0.0 - - - - - - -
21/11:00am 35.9 N 9 13 1016.0 - 0.0 - - - - - - -
21/10:30am 34.8 N 9 13 1016.3 - 0.0 - - - - - - -
21/10:00am 33.5 WNW 3 6 1016.5 - 0.0 - - - - - - -
21/09:30am 32.2 NW 3 5 1016.5 - 0.0 - - - - - - -
21/09:00am 30.7 WSW 4 6 1016.6 - 0.0 - - - - - - -
21/08:30am 28.4 WSW 5 7 1016.6 - 0.0 - - - - - - -
21/08:00am 26.7 W 5 8 1016.7 - 0.0 - - - - - - -
21/07:30am 25.3 SW 7 9 1016.5 - 0.0 - - - - - - -
21/07:00am 23.2 SW 8 9 1016.1 - 0.0 - - - - - - -
21/06:30am 21.5 SW 8 10 1015.9 - 0.0 - - - - - - -
21/06:00am 20.2 WSW 7 8 1015.7 - 0.0 - - - - - - -
21/05:30am 19.7 WSW 5 7 1015.5 - 0.0 - - - - - - -
21/05:00am 20.1 WSW 6 8 1015.3 - 0.0 - - - - - - -
21/04:30am 20.3 WSW 8 9 1015.1 - 0.0 - - - - - - -
21/04:00am 21.0 WSW 9 11 1014.8 - 0.0 - - - - - - -
21/03:30am 21.0 WSW 9 12 1014.8 - 0.0 - - - - - - -
21/03:00am 21.0 WSW 8 11 1014.8 - 0.0 - - - - - - -
21/02:30am 21.2 WSW 7 11 1014.9 - 0.0 - - - - - - -
21/02:00am 21.7 WSW 9 14 1014.9 - 0.0 - - - - - - -
21/01:30am 21.2 WSW 7 8 1015.0 - 0.0 - - - - - - -
21/01:00am 21.6 WSW 7 10 1015.3 - 0.0 - - - - - - -
21/12:30am 21.9 WSW 11 14 1015.4 - 0.0 - - - - - - -
21/12:00am 21.6 W 8 10 1015.5 - 0.0 - - - - - - -
 
Date/Time
WST
Temp

°C
Wind Pressure Rain
since 9am
mm
Weather Cloud Vis
km
Sea
Height
m
Swell
Dir
 
Speed
knots
Gust
knots
hPa Trend Height
m
Period
s
Dir
20/11:30pm 21.9 W 9 13 1015.9 - 0.0 - - - - - - -
20/11:00pm 22.5 W 12 15 1016.0 - 0.0 - - - - - - -
20/10:30pm 22.9 W 10 13 1016.1 - 0.0 - - - - - - -
20/10:00pm 23.2 W 11 15 1016.0 - 0.0 - - - - - - -
20/09:30pm 23.4 W 10 13 1016.0 - 0.0 - - - - - - -
20/09:00pm 23.7 WNW 8 11 1015.9 - 0.0 - - - - - - -
20/08:30pm 24.4 W 9 12 1015.6 - 0.0 - - - - - - -
20/08:00pm 24.7 W 11 15 1015.2 - 0.0 - - - - - - -
20/07:30pm 25.2 W 11 13 1015.1 - 0.0 - - - - - - -
20/07:00pm 25.8 WNW 13 19 1014.5 - 0.0 - - - - - - -
20/06:30pm 26.6 W 13 16 1014.1 - 0.0 - - - - - - -
20/06:00pm 28.1 WNW 13 17 1013.8 - 0.0 - - - - - - -
20/05:30pm 29.5 WNW 14 18 1013.4 - 0.0 - - - - - - -
20/05:00pm 31.1 WNW 13 17 1013.1 - 0.0 - - - - - - -
20/04:30pm 31.7 NW 13 18 1013.0 - 0.0 - - - - - - -
20/04:00pm 31.8 NW 13 17 1012.9 - 0.0 - - - - - - -
20/03:30pm 32.8 NNW 14 19 1012.9 - 0.0 - - - - - - -
20/03:00pm 33.5 NW 13 17 1013.0 - 0.0 - - - - - - -

Other Formats:

Comma delimited format used in spreadsheet applications
http://www.bom.gov.au/fwo/IDW60701/IDW60701.94308.axf

JavaScript Object Notation format (JSON) in row-major order
http://www.bom.gov.au/fwo/IDW60701/IDW60701.94308.json